Ann Arbor, MI

5:51 PM EDT on March 27, 2015 (GMT -0400)
Walker Briar Works | | Change Station
CLOSE
Current Station
Personal Weather Station
Location: Ann Arbor, MI
Elevation: 961 ft
Nearby Weather Stations

Elev 961 ft 42.26 °N, 83.77 °W | Updated 1 minute ago

Overcast
Overcast
24.4 °F
Feels Like 24 °F
N
1.6
Wind Variable Wind from NW
Gusts 5.4 mph

Today
High -- | Low -- °F
--% Chance of Precip.
Yesterday
High -- | Low -- °F
Precip. -- in
7:26 AM 7:55 PM
First Quarter, 56% visible
Pressure 30.07 in
Visibility 9.0 miles
Clouds Few 3000 ft
Mostly Cloudy 4000 ft
Overcast 6000 ft
Windchill 24 °F
Dew Point 11 °F
Humidity 56%
Rainfall 0.00 in
Snow Depth Not available.
UV 1 out of 12
Pollen 3.60 out of 12
Air Quality Not available.
Flu Activity Not available.
METAR KARB 272053Z 33009KT 9SM FEW030 BKN040 OVC060 M04/M11 A3003 RMK AO2 SNE1956B26E50 SLP182 P0000 60000 T10391111 53002

More Conditions Fewer Conditions

Pressure 30.07 in
Visibility 9.0 miles
Clouds Few 3000 ft
Mostly Cloudy 4000 ft
Overcast 6000 ft
Windchill 24 °F
Dew Point 11 °F
Humidity 56%
Rainfall 0.00 in
Snow Depth Not available.
UV 1 out of 12
Pollen 3.60 out of 12
Air Quality Not available.
Flu Activity Not available.
METAR KARB 272053Z 33009KT 9SM FEW030 BKN040 OVC060 M04/M11 A3003 RMK AO2 SNE1956B26E50 SLP182 P0000 60000 T10391111 53002

More Conditions Fewer Conditions

10-Day Weather Forecast

Almanac

Astronomy

Mar. 27, 2015 Rise Set
Actual Time
Civil Twilight
Nautical Twilight
Astronomical Twilight
Moon
Length of Visible Light
Length of Day
Tomorrow will be .
, % of the Moon is Illuminated

Today's Extremes

State Highs State Lows

Community

WunderPhotos

Upload Photos

1,808,834 photos uploaded!

WunderBlogs® & News

Nearby

Air Quality

  Air Quality AQ Index Pollutant
Not available.

Snow Depth

Station Depth Elevation

Earthquake Activity

City Distance Mag. Time & Date
Minimum magnitude displayed is 2.5.

Coastal Water Temperatures

Place Temperature

Stations

Nearby Weather Stations

Station Location Temp. Windchill Dew Point Humidity Wind Precip. Elev Updated Type